Time;durP1;ratioP1;P1;durP2;ratioP2;P2;SDS_P1;SDS_P2;PMS_P1;PMS_P2;Temp;Humidity;BMP_temperature;BMP_pressure;BME280_temperature;BME280_humidity;BME280_pressure;Samples;Min_cycle;Max_cycle;Signal;HPM_P1;HPM_P2
2022/10/15 00:00:46;;;;;;;7.75;4.10;;;;;;;;;;4984958;28;20106;-68
2022/10/15 00:03:12;;;;;;;4.97;4.20;;;;;;;;;;4980318;28;20113;-68
2022/10/15 00:05:39;;;;;;;4.63;4.10;;;;;;;;;;4980684;28;20093;-70
2022/10/15 00:08:05;;;;;;;6.72;4.38;;;;;;;;;;4980919;28;20038;-71
2022/10/15 00:10:31;;;;;;;6.60;4.18;;;;;;;;;;4984038;28;20105;-70
2022/10/15 00:12:56;;;;;;;6.85;3.88;;;;;;;;;;4979429;28;20711;-70
2022/10/15 00:15:21;;;;;;;5.88;3.65;;;;;;;;;;4983358;28;20036;-69
2022/10/15 00:17:47;;;;;;;5.70;4.43;;;;;;;;;;4979826;28;20037;-70
2022/10/15 00:20:12;;;;;;;4.90;4.25;;;;;;;;;;4978491;28;20034;-70
2022/10/15 00:22:38;;;;;;;5.82;4.47;;;;;;;;;;4984799;28;20068;-70
2022/10/15 00:25:04;;;;;;;8.02;4.55;;;;;;;;;;4986540;28;20046;-69
2022/10/15 00:27:30;;;;;;;8.20;4.30;;;;;;;;;;4981448;28;20026;-69
2022/10/15 00:29:55;;;;;;;5.68;4.53;;;;;;;;;;4984006;28;20039;-70
2022/10/15 00:32:21;;;;;;;5.07;4.47;;;;;;;;;;4980592;28;20042;-70
2022/10/15 00:34:46;;;;;;;5.30;4.50;;;;;;;;;;4982301;28;20520;-70
2022/10/15 00:37:12;;;;;;;5.80;4.43;;;;;;;;;;4984565;28;20119;-68
2022/10/15 00:39:37;;;;;;;8.27;4.50;;;;;;;;;;4989640;28;20485;-69
2022/10/15 00:42:04;;;;;;;5.82;4.32;;;;;;;;;;4984426;28;20133;-70
2022/10/15 00:44:29;;;;;;;7.68;4.30;;;;;;;;;;4982525;28;20027;-71
2022/10/15 00:47:09;;;;;;;5.90;4.65;;;;;;;;;;4985054;28;20092;-70
2022/10/15 00:49:59;;;;;;;5.75;4.07;;;;;;;;;;4977625;28;20399;-71
2022/10/15 00:52:31;;;;;;;7.47;4.65;;;;;;;;;;4983406;28;20105;-70
2022/10/15 00:55:04;;;;;;;5.80;4.68;;;;;;;;;;4978717;28;20117;-69
2022/10/15 00:57:31;;;;;;;;;;;;;;;;;;4983860;28;20030;-67
2022/10/15 01:00:00;;;;;;;6.07;4.40;;;;;;;;;;4981214;28;20012;-70
2022/10/15 01:02:26;;;;;;;5.78;4.40;;;;;;;;;;4980909;28;20035;-68
2022/10/15 01:04:52;;;;;;;5.35;4.25;;;;;;;;;;4984317;28;20545;-68
2022/10/15 01:07:18;;;;;;;5.72;4.80;;;;;;;;;;4984822;28;20401;-69
2022/10/15 01:09:45;;;;;;;7.47;4.80;;;;;;;;;;4984590;28;20034;-70
2022/10/15 01:12:29;;;;;;;6.90;5.18;;;;;;;;;;4986428;28;20383;-68
2022/10/15 01:15:06;;;;;;;5.57;4.60;;;;;;;;;;4983956;28;20399;-68
2022/10/15 01:17:40;;;;;;;5.25;4.20;;;;;;;;;;4981459;28;20152;-67
2022/10/15 01:20:18;;;;;;;5.45;4.50;;;;;;;;;;4985144;28;20117;-70
2022/10/15 01:23:05;;;;;;;5.50;4.90;;;;;;;;;;4985135;28;20041;-69
2022/10/15 01:25:53;;;;;;;6.05;4.43;;;;;;;;;;4986771;28;20130;-69
2022/10/15 01:28:31;;;;;;;5.68;4.22;;;;;;;;;;4985665;28;20030;-69
2022/10/15 01:31:15;;;;;;;8.32;4.68;;;;;;;;;;4981414;28;20057;-68
2022/10/15 01:34:05;;;;;;;6.38;4.65;;;;;;;;;;4979695;28;20041;-69
2022/10/15 01:36:36;;;;;;;5.30;4.35;;;;;;;;;;4985958;28;20026;-67
2022/10/15 01:39:20;;;;;;;5.30;4.40;;;;;;;;;;4984792;28;20370;-67
2022/10/15 01:41:52;;;;;;;10.45;5.38;;;;;;;;;;4991468;28;20045;-69
2022/10/15 01:44:24;;;;;;;7.50;5.13;;;;;;;;;;4980446;28;22272;-69
2022/10/15 01:47:04;;;;;;;8.80;4.80;;;;;;;;;;4982029;28;20038;-69
2022/10/15 01:49:33;;;;;;;7.88;5.25;;;;;;;;;;4987126;28;20103;-68
2022/10/15 01:52:05;;;;;;;7.40;5.00;;;;;;;;;;4989983;28;20125;-68
2022/10/15 01:54:31;;;;;;;6.90;4.63;;;;;;;;;;4983960;28;20034;-70
2022/10/15 01:56:58;;;;;;;7.40;4.80;;;;;;;;;;4981417;28;20114;-68
2022/10/15 01:59:28;;;;;;;5.60;4.68;;;;;;;;;;4990028;28;20045;-69
2022/10/15 02:01:54;;;;;;;5.97;4.97;;;;;;;;;;4989118;28;20116;-68
2022/10/15 02:04:21;;;;;;;6.50;4.95;;;;;;;;;;4982163;28;20054;-67
2022/10/15 02:06:53;;;;;;;9.20;5.20;;;;;;;;;;4987350;28;20042;-69
2022/10/15 02:09:48;;;;;;;7.75;4.90;;;;;;;;;;4990891;28;20030;-67
2022/10/15 02:12:30;;;;;;;5.53;4.93;;;;;;;;;;4983736;28;20057;-67
2022/10/15 02:15:07;;;;;;;7.88;5.20;;;;;;;;;;4985969;28;20047;-69
2022/10/15 02:17:41;;;;;;;5.75;5.07;;;;;;;;;;4988009;28;20100;-69
2022/10/15 02:20:24;;;;;;;7.95;4.78;;;;;;;;;;4984618;28;20406;-70
2022/10/15 02:23:02;;;;;;;5.68;5.00;;;;;;;;;;4984677;28;20041;-69
2022/10/15 02:25:28;;;;;;;5.65;4.65;;;;;;;;;;4984472;28;20038;-69
2022/10/15 02:27:56;;;;;;;10.48;5.28;;;;;;;;;;4988552;28;20026;-68
2022/10/15 02:30:23;;;;;;;7.85;5.35;;;;;;;;;;4985113;28;20023;-68
2022/10/15 02:32:52;;;;;;;8.30;5.68;;;;;;;;;;4983988;28;20594;-69
2022/10/15 02:35:20;;;;;;;8.35;5.63;;;;;;;;;;4991398;28;20039;-68
2022/10/15 02:37:49;;;;;;;7.45;4.65;;;;;;;;;;4985439;28;20506;-70
2022/10/15 02:40:15;;;;;;;7.05;4.20;;;;;;;;;;4985089;28;20042;-68
2022/10/15 02:42:41;;;;;;;6.05;4.13;;;;;;;;;;4981346;28;20088;-67
2022/10/15 02:45:07;;;;;;;5.97;4.13;;;;;;;;;;4985245;28;20034;-67
2022/10/15 02:47:33;;;;;;;8.80;4.15;;;;;;;;;;4983146;28;20568;-68
2022/10/15 02:49:59;;;;;;;6.45;4.18;;;;;;;;;;4988987;28;20046;-68
2022/10/15 02:52:24;;;;;;;6.40;4.07;;;;;;;;;;4982596;28;20038;-71
2022/10/15 02:54:50;;;;;;;6.60;4.20;;;;;;;;;;4981421;28;20112;-69
2022/10/15 02:57:15;;;;;;;5.70;4.00;;;;;;;;;;4985993;28;20105;-68
2022/10/15 02:59:41;;;;;;;7.90;4.00;;;;;;;;;;4989447;28;20486;-68
2022/10/15 03:02:07;;;;;;;8.55;4.00;;;;;;;;;;4983745;28;20041;-68
2022/10/15 03:04:32;;;;;;;6.93;4.05;;;;;;;;;;4986623;28;20376;-69
2022/10/15 03:06:57;;;;;;;5.60;4.40;;;;;;;;;;4987185;28;20050;-71
2022/10/15 03:09:23;;;;;;;4.75;3.92;;;;;;;;;;4980964;28;20038;-69
2022/10/15 03:11:48;;;;;;;5.90;4.15;;;;;;;;;;4979707;28;20043;-70
2022/10/15 03:14:14;;;;;;;9.40;4.50;;;;;;;;;;4981644;28;20402;-68
2022/10/15 03:16:39;;;;;;;5.63;4.10;;;;;;;;;;4987884;28;20134;-68
2022/10/15 03:19:05;;;;;;;5.15;4.30;;;;;;;;;;4988353;28;20041;-68
2022/10/15 03:21:30;;;;;;;5.90;4.30;;;;;;;;;;4988806;28;20648;-69
2022/10/15 03:23:57;;;;;;;6.85;4.47;;;;;;;;;;4984915;28;20048;-68
2022/10/15 03:26:22;;;;;;;5.95;4.10;;;;;;;;;;4990916;28;20045;-68
2022/10/15 03:28:48;;;;;;;6.53;4.80;;;;;;;;;;4983234;28;20542;-68
2022/10/15 03:31:13;;;;;;;6.93;4.40;;;;;;;;;;4987977;28;20042;-68
2022/10/15 03:33:39;;;;;;;7.65;4.95;;;;;;;;;;4983972;28;20051;-69
2022/10/15 03:36:05;;;;;;;5.40;4.40;;;;;;;;;;4983399;28;20027;-69
2022/10/15 03:38:30;;;;;;;5.40;4.25;;;;;;;;;;4991253;28;20512;-68
2022/10/15 03:40:56;;;;;;;4.60;4.10;;;;;;;;;;4988841;28;20039;-67
2022/10/15 03:43:24;;;;;;;11.13;5.18;;;;;;;;;;4984834;28;20157;-68
2022/10/15 03:45:49;;;;;;;7.45;5.03;;;;;;;;;;4985933;28;20444;-68
2022/10/15 03:48:14;;;;;;;5.80;4.20;;;;;;;;;;4988267;28;20110;-70
2022/10/15 03:50:40;;;;;;;11.20;4.53;;;;;;;;;;4984420;28;20462;-67
2022/10/15 03:53:05;;;;;;;5.50;4.53;;;;;;;;;;4980344;28;20137;-67
2022/10/15 03:55:32;;;;;;;6.30;4.28;;;;;;;;;;4984245;28;20040;-69
2022/10/15 03:57:57;;;;;;;4.82;4.05;;;;;;;;;;4981282;28;20034;-68
2022/10/15 04:00:23;;;;;;;5.25;4.40;;;;;;;;;;4982001;28;20577;-68
2022/10/15 04:02:48;;;;;;;5.20;4.35;;;;;;;;;;4983326;28;20046;-68
2022/10/15 04:05:13;;;;;;;4.78;3.92;;;;;;;;;;4980694;28;20041;-68
2022/10/15 04:07:39;;;;;;;4.57;4.05;;;;;;;;;;4983331;28;20987;-68
2022/10/15 04:10:05;;;;;;;7.53;4.40;;;;;;;;;;4983038;28;20128;-68
2022/10/15 04:12:30;;;;;;;6.93;5.25;;;;;;;;;;4982919;28;20030;-68
2022/10/15 04:14:55;;;;;;;7.78;4.65;;;;;;;;;;4984809;28;20038;-67
2022/10/15 04:17:21;;;;;;;11.48;5.30;;;;;;;;;;4985781;28;20129;-68
2022/10/15 04:19:46;;;;;;;9.52;4.88;;;;;;;;;;4985535;28;20035;-68
2022/10/15 04:22:12;;;;;;;7.88;4.75;;;;;;;;;;4983549;28;20053;-67
2022/10/15 04:24:37;;;;;;;8.45;4.85;;;;;;;;;;4987216;28;20615;-67
2022/10/15 04:27:03;;;;;;;12.07;5.60;;;;;;;;;;4984493;28;20039;-68
2022/10/15 04:29:28;;;;;;;9.73;5.07;;;;;;;;;;4981111;28;20034;-68
2022/10/15 04:31:54;;;;;;;9.80;5.90;;;;;;;;;;4986439;28;20030;-67
2022/10/15 04:34:19;;;;;;;11.65;5.95;;;;;;;;;;4986334;28;20041;-68
2022/10/15 04:36:44;;;;;;;10.57;4.93;;;;;;;;;;4987056;28;20044;-69
2022/10/15 04:39:10;;;;;;;10.45;5.47;;;;;;;;;;4982969;28;20033;-69
2022/10/15 04:41:35;;;;;;;13.85;6.47;;;;;;;;;;4985811;28;20081;-69
2022/10/15 04:44:01;;;;;;;13.98;6.95;;;;;;;;;;4979050;28;20041;-70
2022/10/15 04:46:26;;;;;;;14.38;7.22;;;;;;;;;;4984006;28;20133;-68
2022/10/15 04:48:56;;;;;;;11.38;6.22;;;;;;;;;;4984422;28;20031;-68
2022/10/15 04:51:22;;;;;;;8.23;5.55;;;;;;;;;;4987838;28;20060;-68
2022/10/15 04:53:48;;;;;;;12.88;6.05;;;;;;;;;;4988843;28;20129;-69
2022/10/15 04:56:16;;;;;;;11.43;5.97;;;;;;;;;;4991828;28;21757;-68
2022/10/15 04:58:44;;;;;;;12.63;7.40;;;;;;;;;;4987421;28;20038;-68
2022/10/15 05:01:14;;;;;;;12.68;6.80;;;;;;;;;;4991664;28;20039;-69
2022/10/15 05:03:43;;;;;;;13.90;6.65;;;;;;;;;;4987840;28;20090;-69
2022/10/15 05:06:11;;;;;;;13.20;6.45;;;;;;;;;;4988289;28;20058;-67
2022/10/15 05:08:40;;;;;;;13.02;6.82;;;;;;;;;;4988470;28;20038;-69
2022/10/15 05:11:08;;;;;;;15.77;6.90;;;;;;;;;;4986784;28;20035;-70
2022/10/15 05:13:34;;;;;;;11.88;6.40;;;;;;;;;;4988882;28;20149;-68
2022/10/15 05:16:12;;;;;;;12.05;6.57;;;;;;;;;;4990629;28;20038;-68
2022/10/15 05:18:39;;;;;;;14.25;7.38;;;;;;;;;;4985944;28;20080;-68
2022/10/15 05:21:05;;;;;;;12.95;6.97;;;;;;;;;;4986187;28;20037;-68
2022/10/15 05:23:30;;;;;;;13.57;6.50;;;;;;;;;;4983919;28;20050;-68
2022/10/15 05:26:00;;;;;;;10.48;5.68;;;;;;;;;;4988638;28;20046;-68
2022/10/15 05:28:25;;;;;;;9.70;5.80;;;;;;;;;;4984806;28;20088;-68
2022/10/15 05:30:50;;;;;;;11.02;5.68;;;;;;;;;;4981655;28;20027;-69
2022/10/15 05:33:16;;;;;;;10.35;5.60;;;;;;;;;;4992445;28;20033;-68
2022/10/15 05:35:41;;;;;;;14.55;5.70;;;;;;;;;;4987594;28;20090;-68
2022/10/15 05:38:07;;;;;;;9.30;5.15;;;;;;;;;;4988729;28;20047;-69
2022/10/15 05:40:33;;;;;;;8.65;5.20;;;;;;;;;;4989735;28;20072;-68
2022/10/15 05:42:58;;;;;;;10.38;5.28;;;;;;;;;;4984884;28;20054;-70
2022/10/15 05:45:23;;;;;;;10.65;5.25;;;;;;;;;;4985891;28;20073;-68
2022/10/15 05:47:53;;;;;;;9.98;5.63;;;;;;;;;;4986039;28;20069;-69
2022/10/15 05:50:19;;;;;;;9.30;5.05;;;;;;;;;;4988329;28;20046;-70
2022/10/15 05:52:44;;;;;;;13.15;5.65;;;;;;;;;;4984476;28;20061;-69
2022/10/15 05:55:09;;;;;;;14.23;5.65;;;;;;;;;;4982651;28;20126;-68
2022/10/15 05:57:35;;;;;;;16.23;6.10;;;;;;;;;;4984766;28;20030;-69
2022/10/15 06:00:01;;;;;;;7.10;4.43;;;;;;;;;;4981728;28;20061;-70
2022/10/15 06:02:26;;;;;;;9.48;4.95;;;;;;;;;;4982533;28;20130;-68
2022/10/15 06:04:52;;;;;;;7.38;5.00;;;;;;;;;;4979873;28;20118;-70
2022/10/15 06:07:17;;;;;;;6.05;4.65;;;;;;;;;;4985129;28;20694;-70
2022/10/15 06:09:43;;;;;;;7.53;4.63;;;;;;;;;;4985668;28;20026;-67
2022/10/15 06:12:08;;;;;;;6.72;4.43;;;;;;;;;;4980483;28;20093;-68
2022/10/15 06:14:34;;;;;;;7.43;4.70;;;;;;;;;;4985268;28;20093;-67
2022/10/15 06:16:59;;;;;;;7.05;4.30;;;;;;;;;;4984864;28;20046;-67
2022/10/15 06:19:25;;;;;;;5.97;4.30;;;;;;;;;;4987181;28;20060;-68
2022/10/15 06:21:50;;;;;;;6.82;4.40;;;;;;;;;;4985595;28;20037;-70
2022/10/15 06:24:15;;;;;;;6.35;4.13;;;;;;;;;;4985361;28;20030;-68
2022/10/15 06:26:41;;;;;;;7.03;4.55;;;;;;;;;;4981698;28;20038;-68
2022/10/15 06:29:07;;;;;;;6.15;3.95;;;;;;;;;;4980434;28;20047;-69
2022/10/15 06:31:32;;;;;;;5.97;3.70;;;;;;;;;;4987480;28;20038;-68
2022/10/15 06:33:57;;;;;;;6.00;3.97;;;;;;;;;;4978905;28;20041;-69
2022/10/15 06:36:25;;;;;;;5.57;3.75;;;;;;;;;;4983507;28;20030;-68
2022/10/15 06:38:51;;;;;;;8.73;4.03;;;;;;;;;;4983643;28;20047;-68
2022/10/15 06:41:16;;;;;;;15.23;4.18;;;;;;;;;;4986431;28;20181;-68
2022/10/15 06:43:43;;;;;;;5.82;4.30;;;;;;;;;;4978105;28;20046;-69
2022/10/15 06:46:08;;;;;;;5.68;3.88;;;;;;;;;;4981554;28;20057;-68
2022/10/15 06:48:34;;;;;;;5.68;4.10;;;;;;;;;;4985561;28;20058;-68
2022/10/15 06:51:00;;;;;;;9.63;3.90;;;;;;;;;;4981545;28;20264;-68
2022/10/15 06:53:27;;;;;;;6.72;4.05;;;;;;;;;;4986943;28;20057;-69
2022/10/15 06:55:57;;;;;;;7.72;4.10;;;;;;;;;;4990175;28;20045;-68
2022/10/15 06:58:23;;;;;;;6.57;3.75;;;;;;;;;;4985000;28;20101;-67
2022/10/15 07:00:48;;;;;;;5.93;4.18;;;;;;;;;;4984018;28;20456;-67
2022/10/15 07:03:14;;;;;;;5.65;4.05;;;;;;;;;;4985599;28;20022;-67
2022/10/15 07:05:39;;;;;;;6.43;3.83;;;;;;;;;;4984327;28;20120;-68
2022/10/15 07:08:04;;;;;;;6.97;3.78;;;;;;;;;;4982215;28;20112;-69
2022/10/15 07:10:30;;;;;;;5.82;4.10;;;;;;;;;;4981318;28;20399;-68
2022/10/15 07:12:59;;;;;;;7.50;3.92;;;;;;;;;;4988132;28;20041;-69
2022/10/15 07:15:24;;;;;;;6.57;3.88;;;;;;;;;;4984833;28;20034;-68
2022/10/15 07:17:55;;;;;;;6.50;3.90;;;;;;;;;;4985523;28;20045;-67
2022/10/15 07:20:21;;;;;;;8.18;3.60;;;;;;;;;;4985252;28;20042;-67
2022/10/15 07:22:47;;;;;;;5.00;4.00;;;;;;;;;;4984740;28;20038;-67
2022/10/15 07:25:13;;;;;;;8.90;3.85;;;;;;;;;;4987027;28;20041;-66
2022/10/15 07:27:39;;;;;;;6.88;4.72;;;;;;;;;;4986770;28;20032;-67
2022/10/15 07:30:09;;;;;;;5.78;4.25;;;;;;;;;;4982752;28;20121;-68
2022/10/15 07:32:35;;;;;;;6.72;4.50;;;;;;;;;;4983861;28;20069;-67
2022/10/15 07:35:01;;;;;;;5.63;3.80;;;;;;;;;;4984090;28;20521;-67
2022/10/15 07:37:26;;;;;;;5.85;3.90;;;;;;;;;;4983198;28;20525;-68
2022/10/15 07:39:52;;;;;;;6.13;3.92;;;;;;;;;;4982166;28;20105;-68
2022/10/15 07:42:17;;;;;;;4.68;3.42;;;;;;;;;;4984670;28;20522;-70
2022/10/15 07:44:42;;;;;;;5.35;3.63;;;;;;;;;;4984842;28;20045;-68
2022/10/15 07:47:08;;;;;;;4.38;3.42;;;;;;;;;;4985002;28;20031;-68
2022/10/15 07:49:33;;;;;;;5.35;3.40;;;;;;;;;;4984619;28;20105;-68
2022/10/15 07:51:59;;;;;;;5.57;3.70;;;;;;;;;;4985289;28;20047;-68
2022/10/15 07:54:24;;;;;;;4.47;3.20;;;;;;;;;;4990322;28;20022;-68
2022/10/15 07:56:49;;;;;;;7.13;3.60;;;;;;;;;;4990815;28;20038;-70
2022/10/15 07:59:15;;;;;;;5.88;3.10;;;;;;;;;;4989209;28;20034;-68
2022/10/15 08:01:40;;;;;;;4.57;3.38;;;;;;;;;;4986166;28;20046;-69
2022/10/15 08:04:05;;;;;;;6.68;3.75;;;;;;;;;;4983912;28;20054;-69
2022/10/15 08:06:31;;;;;;;5.80;3.47;;;;;;;;;;4987098;28;20038;-67
2022/10/15 08:08:57;;;;;;;5.03;3.38;;;;;;;;;;4989170;28;20034;-67
2022/10/15 08:11:22;;;;;;;6.18;3.17;;;;;;;;;;4989389;28;20458;-67
2022/10/15 08:13:48;;;;;;;4.80;3.35;;;;;;;;;;4987510;28;20037;-67
2022/10/15 08:16:15;;;;;;;4.10;2.88;;;;;;;;;;4988752;28;20040;-67
2022/10/15 08:18:42;;;;;;;3.95;2.90;;;;;;;;;;4985550;28;20089;-69
2022/10/15 08:21:07;;;;;;;5.72;3.33;;;;;;;;;;4992598;28;20022;-68
2022/10/15 08:23:34;;;;;;;3.80;3.15;;;;;;;;;;4988214;28;20148;-69
2022/10/15 08:25:59;;;;;;;8.07;2.88;;;;;;;;;;4994540;28;20121;-68
2022/10/15 08:28:29;;;;;;;8.13;3.30;;;;;;;;;;4996292;28;20164;-68
2022/10/15 08:30:57;;;;;;;7.38;3.63;;;;;;;;;;4991481;28;20082;-68
2022/10/15 08:33:23;;;;;;;5.53;3.20;;;;;;;;;;4990985;28;20035;-68
2022/10/15 08:35:48;;;;;;;6.45;3.35;;;;;;;;;;4985933;28;20065;-70
2022/10/15 08:38:13;;;;;;;8.65;3.40;;;;;;;;;;4991955;28;20093;-68
2022/10/15 08:40:45;;;;;;;5.43;3.35;;;;;;;;;;4989735;28;20455;-68
2022/10/15 08:43:39;;;;;;;5.82;2.83;;;;;;;;;;4988821;28;20056;-67
2022/10/15 08:46:17;;;;;;;5.63;2.58;;;;;;;;;;4983796;28;20050;-68
2022/10/15 08:49:03;;;;;;;7.40;2.80;;;;;;;;;;4992807;28;20030;-68
2022/10/15 08:51:43;;;;;;;3.88;2.70;;;;;;;;;;4993011;28;20505;-69
2022/10/15 08:54:14;;;;;;;5.40;2.33;;;;;;;;;;4995007;28;20258;-69
2022/10/15 08:56:44;;;;;;;8.68;4.53;;;;;;;;;;4994044;28;20065;-68
2022/10/15 08:59:30;;;;;;;5.10;2.95;;;;;;;;;;4992272;28;20034;-68
2022/10/15 09:02:12;;;;;;;9.35;2.70;;;;;;;;;;4993277;28;20050;-68
2022/10/15 09:05:30;;;;;;;5.43;2.00;;;;;;;;;;4992952;28;20047;-67
2022/10/15 09:07:58;;;;;;;2.28;1.60;;;;;;;;;;4962605;28;20125;-67
2022/10/15 09:10:35;;;;;;;2.30;1.90;;;;;;;;;;4994642;28;20048;-67
2022/10/15 09:13:11;;;;;;;5.70;1.65;;;;;;;;;;4994724;28;20686;-70
2022/10/15 09:15:47;;;;;;;2.83;1.40;;;;;;;;;;4994312;28;20034;-68
2022/10/15 09:18:20;;;;;;;4.05;2.10;;;;;;;;;;4995648;28;20041;-68
2022/10/15 09:20:46;;;;;;;3.72;1.83;;;;;;;;;;4992835;28;20514;-69
2022/10/15 09:23:22;;;;;;;3.78;1.80;;;;;;;;;;4992878;28;20065;-68
2022/10/15 09:25:56;;;;;;;2.95;2.10;;;;;;;;;;4990976;28;20149;-68
2022/10/15 09:28:25;;;;;;;2.72;1.90;;;;;;;;;;4991575;28;20030;-68
2022/10/15 09:30:55;;;;;;;2.53;2.08;;;;;;;;;;4996442;28;20026;-68
2022/10/15 09:33:41;;;;;;;3.60;2.05;;;;;;;;;;4991653;28;20030;-68
2022/10/15 09:36:31;;;;;;;6.38;2.53;;;;;;;;;;4986770;28;20441;-70
2022/10/15 09:39:03;;;;;;;5.95;2.38;;;;;;;;;;4988048;28;20045;-68
2022/10/15 09:42:22;;;;;;;3.95;2.20;;;;;;;;;;4988015;28;20062;-68
2022/10/15 09:44:50;;;;;;;7.72;2.85;;;;;;;;;;4944878;28;20039;-69
2022/10/15 09:47:32;;;;;;;4.72;2.22;;;;;;;;;;4945400;28;20042;-69
2022/10/15 09:49:58;;;;;;;7.55;2.40;;;;;;;;;;4976884;28;20046;-69
2022/10/15 09:52:29;;;;;;;6.18;2.35;;;;;;;;;;4986317;28;20053;-69
2022/10/15 09:55:33;;;;;;;4.57;2.22;;;;;;;;;;4989481;28;20034;-68
2022/10/15 09:58:05;;;;;;;2.67;1.60;;;;;;;;;;4987669;28;20115;-68
2022/10/15 10:00:57;;;;;;;4.63;1.60;;;;;;;;;;4991433;28;20046;-68
2022/10/15 10:03:25;;;;;;;2.42;1.40;;;;;;;;;;4983661;28;20042;-68
2022/10/15 10:06:05;;;;;;;2.72;1.42;;;;;;;;;;4983252;28;20035;-68
2022/10/15 10:08:45;;;;;;;2.35;1.38;;;;;;;;;;4982109;28;20454;-68
2022/10/15 10:11:11;;;;;;;3.70;1.63;;;;;;;;;;4985400;28;20601;-68
2022/10/15 10:13:44;;;;;;;2.70;1.50;;;;;;;;;;4984647;28;20398;-68
2022/10/15 10:16:11;;;;;;;4.82;1.65;;;;;;;;;;4987925;28;20047;-68
2022/10/15 10:18:37;;;;;;;2.47;1.63;;;;;;;;;;4988051;28;20030;-68
2022/10/15 10:21:06;;;;;;;4.30;1.60;;;;;;;;;;4984031;28;20042;-69
2022/10/15 10:23:38;;;;;;;2.17;1.60;;;;;;;;;;4985043;28;20034;-69
2022/10/15 10:26:06;;;;;;;2.80;1.37;;;;;;;;;;4988134;28;20469;-70
2022/10/15 10:28:36;;;;;;;3.83;2.25;;;;;;;;;;4988388;28;20781;-70
2022/10/15 10:31:06;;;;;;;2.83;1.60;;;;;;;;;;4984393;28;20042;-68
2022/10/15 10:33:41;;;;;;;3.78;1.90;;;;;;;;;;4988916;28;20026;-70
2022/10/15 10:36:17;;;;;;;6.50;1.83;;;;;;;;;;4983212;28;20058;-69
2022/10/15 10:39:02;;;;;;;3.10;1.73;;;;;;;;;;4984270;28;20042;-69
2022/10/15 10:41:55;;;;;;;2.78;1.90;;;;;;;;;;4986972;28;20401;-68
2022/10/15 10:44:28;;;;;;;5.55;1.77;;;;;;;;;;4983392;28;20069;-68
2022/10/15 10:47:10;;;;;;;2.83;1.70;;;;;;;;;;4981767;28;20129;-68
2022/10/15 10:49:41;;;;;;;6.67;1.87;;;;;;;;;;4982026;28;20072;-69
2022/10/15 10:52:19;;;;;;;3.72;1.50;;;;;;;;;;4981830;28;20078;-69
2022/10/15 10:54:46;;;;;;;1.38;1.25;;;;;;;;;;4988032;28;20400;-68
2022/10/15 10:57:16;;;;;;;2.13;1.10;;;;;;;;;;4988917;28;20026;-68
2022/10/15 10:59:51;;;;;;;4.18;1.35;;;;;;;;;;4986713;28;20030;-69
2022/10/15 11:02:16;;;;;;;2.75;0.60;;;;;;;;;;4986389;28;20038;-70
2022/10/15 11:04:42;;;;;;;4.28;1.38;;;;;;;;;;4985648;28;20116;-69
2022/10/15 11:07:13;;;;;;;3.22;0.82;;;;;;;;;;4987704;28;20109;-68
2022/10/15 11:09:52;;;;;;;5.22;1.20;;;;;;;;;;4987233;28;20478;-71
2022/10/15 11:12:42;;;;;;;3.47;0.90;;;;;;;;;;4988829;28;20081;-69
2022/10/15 11:15:55;;;;;;;0.68;0.68;;;;;;;;;;4987770;28;20034;-69
2022/10/15 11:18:47;;;;;;;1.50;0.60;;;;;;;;;;4956250;28;20051;-67
2022/10/15 11:21:31;;;;;;;1.63;0.50;;;;;;;;;;4987780;28;20048;-69
2022/10/15 11:24:08;;;;;;;1.92;0.68;;;;;;;;;;4980580;28;20077;-68
2022/10/15 11:27:13;;;;;;;1.65;0.60;;;;;;;;;;4983889;28;20057;-68
2022/10/15 11:30:03;;;;;;;1.77;0.80;;;;;;;;;;4982053;28;20030;-69
2022/10/15 11:33:08;;;;;;;3.45;0.75;;;;;;;;;;4986720;28;20125;-70
2022/10/15 11:36:11;;;;;;;3.58;0.63;;;;;;;;;;4984316;28;20054;-69
2022/10/15 11:39:06;;;;;;;2.60;0.60;;;;;;;;;;4985275;28;20026;-68
2022/10/15 11:42:08;;;;;;;3.28;0.80;;;;;;;;;;4984181;28;20022;-68
2022/10/15 11:44:46;;;;;;;1.00;0.70;;;;;;;;;;4985234;28;20435;-67
2022/10/15 11:47:36;;;;;;;0.73;0.70;;;;;;;;;;4984860;28;20053;-68
2022/10/15 11:50:23;;;;;;;3.25;0.70;;;;;;;;;;4981762;28;20065;-69
2022/10/15 11:52:58;;;;;;;1.40;0.47;;;;;;;;;;4985439;28;20089;-68
2022/10/15 11:55:30;;;;;;;2.00;0.50;;;;;;;;;;4992160;28;20042;-68
2022/10/15 11:57:59;;;;;;;1.45;0.60;;;;;;;;;;4986311;28;20030;-70
2022/10/15 12:00:33;;;;;;;3.25;0.50;;;;;;;;;;4984361;28;20018;-69
2022/10/15 12:03:17;;;;;;;1.50;0.60;;;;;;;;;;4985660;28;20065;-69
2022/10/15 12:05:58;;;;;;;0.82;0.60;;;;;;;;;;4982112;28;20092;-69
2022/10/15 12:08:31;;;;;;;2.25;0.57;;;;;;;;;;4983901;28;20041;-70
2022/10/15 12:11:09;;;;;;;1.00;0.50;;;;;;;;;;4984938;28;20093;-69
2022/10/15 12:13:41;;;;;;;2.88;0.60;;;;;;;;;;4985463;28;20510;-68
2022/10/15 12:16:27;;;;;;;1.23;0.50;;;;;;;;;;4978837;28;20042;-68
2022/10/15 12:18:55;;;;;;;3.92;0.50;;;;;;;;;;4983396;28;20027;-67
2022/10/15 12:21:38;;;;;;;3.35;0.68;;;;;;;;;;4982837;28;20030;-67
2022/10/15 12:24:25;;;;;;;0.55;0.47;;;;;;;;;;4973939;28;21753;-69
2022/10/15 12:26:50;;;;;;;0.85;0.32;;;;;;;;;;4983712;28;20039;-69
2022/10/15 12:29:20;;;;;;;6.35;0.63;;;;;;;;;;4987538;28;20034;-69
2022/10/15 12:31:52;;;;;;;1.55;0.80;;;;;;;;;;4981603;28;20046;-69
2022/10/15 12:34:32;;;;;;;2.15;0.50;;;;;;;;;;4982816;28;20065;-68
2022/10/15 12:37:01;;;;;;;0.68;0.30;;;;;;;;;;4986354;28;20030;-69
2022/10/15 12:39:26;;;;;;;1.90;0.90;;;;;;;;;;4989055;28;20046;-68
2022/10/15 12:41:52;;;;;;;0.90;0.60;;;;;;;;;;4986505;28;20041;-68
2022/10/15 12:44:33;;;;;;;2.63;0.40;;;;;;;;;;4984344;28;20125;-67
2022/10/15 12:46:59;;;;;;;1.77;0.30;;;;;;;;;;4982006;28;20034;-71
2022/10/15 12:49:29;;;;;;;5.68;1.27;;;;;;;;;;4980076;28;20057;-68
2022/10/15 12:51:56;;;;;;;3.17;0.40;;;;;;;;;;4986976;28;20543;-70
2022/10/15 12:54:45;;;;;;;0.65;0.10;;;;;;;;;;4984295;28;20467;-69
2022/10/15 12:57:29;;;;;;;1.48;0.30;;;;;;;;;;4984535;28;20046;-69
2022/10/15 12:59:59;;;;;;;0.47;0.17;;;;;;;;;;4980291;28;20052;-69
2022/10/15 13:02:39;;;;;;;6.13;0.38;;;;;;;;;;4984187;28;20046;-68
2022/10/15 13:05:07;;;;;;;2.15;0.20;;;;;;;;;;4981406;28;20426;-68
2022/10/15 13:07:38;;;;;;;0.43;0.20;;;;;;;;;;4988150;28;20492;-67
2022/10/15 13:10:04;;;;;;;0.55;0.15;;;;;;;;;;4986326;28;20402;-67
2022/10/15 13:12:31;;;;;;;2.13;0.40;;;;;;;;;;4984206;28;20390;-69
2022/10/15 13:15:03;;;;;;;2.10;0.40;;;;;;;;;;4988511;28;20042;-72
2022/10/15 13:17:30;;;;;;;1.75;0.25;;;;;;;;;;4987148;28;20529;-70
2022/10/15 13:20:03;;;;;;;2.28;0.30;;;;;;;;;;4989596;28;20125;-68
2022/10/15 13:22:31;;;;;;;0.55;0.20;;;;;;;;;;4989715;28;20050;-68
2022/10/15 13:24:57;;;;;;;1.13;0.25;;;;;;;;;;4991428;28;20037;-68
2022/10/15 13:27:36;;;;;;;1.90;0.20;;;;;;;;;;4986166;28;20045;-68
2022/10/15 13:30:13;;;;;;;2.90;0.10;;;;;;;;;;4990771;28;20553;-70
2022/10/15 13:32:51;;;;;;;2.90;0.40;;;;;;;;;;4982847;28;20403;-68
2022/10/15 13:35:20;;;;;;;2.42;0.10;;;;;;;;;;4985615;28;20034;-69
2022/10/15 13:37:47;;;;;;;1.38;0.20;;;;;;;;;;4990057;28;20037;-68
2022/10/15 13:40:29;;;;;;;1.45;0.57;;;;;;;;;;4989608;28;20053;-69
2022/10/15 13:43:05;;;;;;;0.45;0.10;;;;;;;;;;4991701;28;20112;-69
2022/10/15 13:45:30;;;;;;;0.88;0.30;;;;;;;;;;4986117;28;20027;-68
2022/10/15 13:47:56;;;;;;;3.88;0.38;;;;;;;;;;4986626;28;20038;-69
2022/10/15 13:50:30;;;;;;;1.85;0.20;;;;;;;;;;4983162;28;20041;-69
2022/10/15 13:53:01;;;;;;;1.58;0.30;;;;;;;;;;4985802;28;20384;-69
2022/10/15 13:55:30;;;;;;;1.13;0.20;;;;;;;;;;4987700;28;20035;-68
2022/10/15 13:58:02;;;;;;;1.63;0.10;;;;;;;;;;4989582;28;20053;-69
2022/10/15 14:00:33;;;;;;;0.85;0.40;;;;;;;;;;4983924;28;20015;-68
2022/10/15 14:03:07;;;;;;;0.30;0.00;;;;;;;;;;4986243;28;20038;-68
2022/10/15 14:05:32;;;;;;;0.43;0.20;;;;;;;;;;4987410;28;20037;-68
2022/10/15 14:07:58;;;;;;;0.43;0.15;;;;;;;;;;4986172;28;20053;-70
2022/10/15 14:10:23;;;;;;;1.45;0.30;;;;;;;;;;4989543;28;20461;-68
2022/10/15 14:12:51;;;;;;;1.33;0.15;;;;;;;;;;4986744;28;20018;-68
2022/10/15 14:15:51;;;;;;;1.35;0.10;;;;;;;;;;4980764;28;20062;-71
2022/10/15 14:18:27;;;;;;;1.75;0.30;;;;;;;;;;4932677;28;20039;-70
2022/10/15 14:20:53;;;;;;;0.70;0.25;;;;;;;;;;4987990;28;20045;-69
2022/10/15 14:23:22;;;;;;;1.13;0.60;;;;;;;;;;4981262;28;20054;-69
2022/10/15 14:26:00;;;;;;;6.50;0.70;;;;;;;;;;4987696;28;20045;-69
2022/10/15 14:28:30;;;;;;;2.60;0.40;;;;;;;;;;4987940;28;20034;-68
2022/10/15 14:30:56;;;;;;;0.77;0.30;;;;;;;;;;4986358;28;20030;-69
2022/10/15 14:33:36;;;;;;;0.20;0.20;;;;;;;;;;4984460;28;20596;-68
2022/10/15 14:36:45;;;;;;;1.92;0.20;;;;;;;;;;4986098;28;20073;-66
2022/10/15 14:39:32;;;;;;;0.57;0.35;;;;;;;;;;4954917;28;20120;-69
2022/10/15 14:42:30;;;;;;;0.63;0.30;;;;;;;;;;4983711;28;20046;-71
2022/10/15 14:44:55;;;;;;;1.55;0.52;;;;;;;;;;4981207;28;20133;-69
2022/10/15 14:47:22;;;;;;;1.60;0.35;;;;;;;;;;4985702;28;20521;-69
2022/10/15 14:49:54;;;;;;;2.67;0.43;;;;;;;;;;4984929;28;20494;-67
2022/10/15 14:52:21;;;;;;;1.43;0.80;;;;;;;;;;4986562;28;20374;-68
2022/10/15 14:54:58;;;;;;;1.63;0.60;;;;;;;;;;4982707;28;20084;-70
2022/10/15 14:57:26;;;;;;;7.07;0.40;;;;;;;;;;4989822;28;20034;-68
2022/10/15 14:59:56;;;;;;;1.08;0.32;;;;;;;;;;4985878;28;20038;-70
2022/10/15 15:02:27;;;;;;;0.98;0.20;;;;;;;;;;4984388;28;22061;-67
2022/10/15 15:05:07;;;;;;;0.73;0.20;;;;;;;;;;4984202;28;20057;-68
2022/10/15 15:07:33;;;;;;;2.13;0.30;;;;;;;;;;4983575;28;20042;-68